sensor_id;sensor_type;location;lat;lon;timestamp;pressure;altitude;pressure_sealevel;temperature;humidity
80747;BME280;75521;50.218;14.322;2024-02-21T00:02:21;99825.00;;;6.70;74.36
80747;BME280;75521;50.218;14.322;2024-02-21T00:04:47;99817.56;;;6.66;74.24
80747;BME280;75521;50.218;14.322;2024-02-21T00:07:12;99808.81;;;6.64;74.52
80747;BME280;75521;50.218;14.322;2024-02-21T00:09:38;99812.59;;;6.63;74.87
80747;BME280;75521;50.218;14.322;2024-02-21T00:12:03;99809.38;;;6.66;74.94
80747;BME280;75521;50.218;14.322;2024-02-21T00:14:30;99788.50;;;6.55;74.77
80747;BME280;75521;50.218;14.322;2024-02-21T00:16:56;99802.81;;;6.62;75.19
80747;BME280;75521;50.218;14.322;2024-02-21T00:19:21;99798.59;;;6.54;75.23
80747;BME280;75521;50.218;14.322;2024-02-21T00:21:46;99796.31;;;6.51;74.61
80747;BME280;75521;50.218;14.322;2024-02-21T00:24:11;99798.69;;;6.48;75.35
80747;BME280;75521;50.218;14.322;2024-02-21T00:26:37;99799.78;;;6.47;75.23
80747;BME280;75521;50.218;14.322;2024-02-21T00:29:02;99789.63;;;6.42;75.37
80747;BME280;75521;50.218;14.322;2024-02-21T00:31:28;99774.03;;;6.38;75.86
80747;BME280;75521;50.218;14.322;2024-02-21T00:33:53;99778.50;;;6.44;75.33
80747;BME280;75521;50.218;14.322;2024-02-21T00:36:18;99780.19;;;6.33;75.75
80747;BME280;75521;50.218;14.322;2024-02-21T00:38:44;99782.19;;;6.38;75.52
80747;BME280;75521;50.218;14.322;2024-02-21T00:41:09;99770.38;;;6.32;75.54
80747;BME280;75521;50.218;14.322;2024-02-21T00:43:35;99781.50;;;6.31;76.11
80747;BME280;75521;50.218;14.322;2024-02-21T00:46:00;99780.34;;;6.26;76.35
80747;BME280;75521;50.218;14.322;2024-02-21T00:48:25;99780.81;;;6.23;76.21
80747;BME280;75521;50.218;14.322;2024-02-21T00:50:51;99766.19;;;6.13;76.08
80747;BME280;75521;50.218;14.322;2024-02-21T00:53:17;99761.13;;;6.05;76.35
80747;BME280;75521;50.218;14.322;2024-02-21T00:55:42;99758.88;;;6.02;77.11
80747;BME280;75521;50.218;14.322;2024-02-21T00:58:08;99774.72;;;6.05;76.70
80747;BME280;75521;50.218;14.322;2024-02-21T01:00:34;99757.47;;;5.99;76.86
80747;BME280;75521;50.218;14.322;2024-02-21T01:02:59;99759.97;;;6.01;76.30
80747;BME280;75521;50.218;14.322;2024-02-21T01:05:25;99754.56;;;5.89;77.26
80747;BME280;75521;50.218;14.322;2024-02-21T01:07:52;99755.94;;;5.92;77.74
80747;BME280;75521;50.218;14.322;2024-02-21T01:10:17;99749.81;;;5.96;77.60
80747;BME280;75521;50.218;14.322;2024-02-21T01:12:43;99747.09;;;5.96;78.04
80747;BME280;75521;50.218;14.322;2024-02-21T01:15:08;99746.03;;;5.97;77.23
80747;BME280;75521;50.218;14.322;2024-02-21T01:17:34;99747.44;;;6.00;77.60
80747;BME280;75521;50.218;14.322;2024-02-21T01:19:59;99740.59;;;5.97;77.79
80747;BME280;75521;50.218;14.322;2024-02-21T01:22:24;99741.53;;;5.91;77.77
80747;BME280;75521;50.218;14.322;2024-02-21T01:24:50;99739.66;;;5.92;78.01
80747;BME280;75521;50.218;14.322;2024-02-21T01:27:15;99754.63;;;5.94;77.69
80747;BME280;75521;50.218;14.322;2024-02-21T01:29:41;99730.09;;;5.89;78.21
80747;BME280;75521;50.218;14.322;2024-02-21T01:32:07;99739.88;;;5.90;77.75
80747;BME280;75521;50.218;14.322;2024-02-21T01:34:32;99727.63;;;5.88;78.05
80747;BME280;75521;50.218;14.322;2024-02-21T01:36:57;99721.47;;;5.92;77.93
80747;BME280;75521;50.218;14.322;2024-02-21T01:39:24;99734.56;;;5.95;77.98
80747;BME280;75521;50.218;14.322;2024-02-21T01:41:49;99708.00;;;5.86;78.29
80747;BME280;75521;50.218;14.322;2024-02-21T01:44:14;99706.22;;;5.91;78.10
80747;BME280;75521;50.218;14.322;2024-02-21T01:46:40;99704.91;;;5.94;77.95
80747;BME280;75521;50.218;14.322;2024-02-21T01:49:05;99703.97;;;6.00;77.93
80747;BME280;75521;50.218;14.322;2024-02-21T01:51:31;99701.47;;;5.98;78.12
80747;BME280;75521;50.218;14.322;2024-02-21T01:53:57;99697.47;;;6.01;78.68
80747;BME280;75521;50.218;14.322;2024-02-21T01:56:23;99688.56;;;6.05;78.28
80747;BME280;75521;50.218;14.322;2024-02-21T01:58:49;99690.09;;;6.13;77.63
80747;BME280;75521;50.218;14.322;2024-02-21T02:01:16;99695.28;;;6.14;77.99
80747;BME280;75521;50.218;14.322;2024-02-21T02:03:42;99695.28;;;6.14;77.55
80747;BME280;75521;50.218;14.322;2024-02-21T02:06:07;99694.81;;;6.17;77.57
80747;BME280;75521;50.218;14.322;2024-02-21T02:08:33;99694.81;;;6.17;77.93
80747;BME280;75521;50.218;14.322;2024-02-21T02:10:59;99694.56;;;6.19;77.79
80747;BME280;75521;50.218;14.322;2024-02-21T02:13:25;99688.88;;;6.20;77.66
80747;BME280;75521;50.218;14.322;2024-02-21T02:15:50;99682.00;;;6.30;77.55
80747;BME280;75521;50.218;14.322;2024-02-21T02:18:19;99687.53;;;6.35;76.95
80747;BME280;75521;50.218;14.322;2024-02-21T02:20:45;99674.41;;;6.32;77.86
80747;BME280;75521;50.218;14.322;2024-02-21T02:23:17;99680.09;;;6.30;77.40
80747;BME280;75521;50.218;14.322;2024-02-21T02:25:43;99675.00;;;6.34;77.72
80747;BME280;75521;50.218;14.322;2024-02-21T02:28:09;99656.03;;;6.22;77.22
80747;BME280;75521;50.218;14.322;2024-02-21T02:30:35;99672.06;;;6.35;77.42
80747;BME280;75521;50.218;14.322;2024-02-21T02:33:04;99647.78;;;6.17;77.52
80747;BME280;75521;50.218;14.322;2024-02-21T02:35:30;99649.59;;;6.28;78.03
80747;BME280;75521;50.218;14.322;2024-02-21T02:37:55;99646.31;;;6.26;77.09
80747;BME280;75521;50.218;14.322;2024-02-21T02:40:21;99655.47;;;6.37;77.29
80747;BME280;75521;50.218;14.322;2024-02-21T02:42:46;99647.00;;;6.33;77.96
80747;BME280;75521;50.218;14.322;2024-02-21T02:45:14;99638.34;;;6.36;77.60
80747;BME280;75521;50.218;14.322;2024-02-21T02:47:40;99633.50;;;6.38;76.75
80747;BME280;75521;50.218;14.322;2024-02-21T02:50:06;99624.75;;;6.36;76.90
80747;BME280;75521;50.218;14.322;2024-02-21T02:52:32;99618.03;;;6.39;76.58
80747;BME280;75521;50.218;14.322;2024-02-21T02:54:57;99628.13;;;6.43;76.63
80747;BME280;75521;50.218;14.322;2024-02-21T02:57:23;99625.19;;;6.45;76.45
80747;BME280;75521;50.218;14.322;2024-02-21T02:59:48;99616.69;;;6.41;76.04
80747;BME280;75521;50.218;14.322;2024-02-21T03:02:14;99618.41;;;6.47;76.77
80747;BME280;75521;50.218;14.322;2024-02-21T03:04:40;99626.34;;;6.49;76.44
80747;BME280;75521;50.218;14.322;2024-02-21T03:07:06;99624.78;;;6.53;76.98
80747;BME280;75521;50.218;14.322;2024-02-21T03:09:31;99618.50;;;6.52;76.49
80747;BME280;75521;50.218;14.322;2024-02-21T03:11:56;99616.19;;;6.44;77.08
80747;BME280;75521;50.218;14.322;2024-02-21T03:14:28;99627.16;;;6.49;77.56
80747;BME280;75521;50.218;14.322;2024-02-21T03:16:53;99620.56;;;6.45;77.58
80747;BME280;75521;50.218;14.322;2024-02-21T03:19:18;99626.84;;;6.46;77.33
80747;BME280;75521;50.218;14.322;2024-02-21T03:21:44;99615.38;;;6.44;77.13
80747;BME280;75521;50.218;14.322;2024-02-21T03:24:09;99604.66;;;6.37;76.82
80747;BME280;75521;50.218;14.322;2024-02-21T03:26:34;99615.88;;;6.41;77.61
80747;BME280;75521;50.218;14.322;2024-02-21T03:29:00;99610.44;;;6.41;78.18
80747;BME280;75521;50.218;14.322;2024-02-21T03:31:25;99609.38;;;6.42;77.80
80747;BME280;75521;50.218;14.322;2024-02-21T03:33:50;99604.56;;;6.32;78.15
80747;BME280;75521;50.218;14.322;2024-02-21T03:36:16;99607.03;;;6.34;77.93
80747;BME280;75521;50.218;14.322;2024-02-21T03:38:41;99599.78;;;6.22;78.17
80747;BME280;75521;50.218;14.322;2024-02-21T03:41:07;99591.63;;;6.22;77.60
80747;BME280;75521;50.218;14.322;2024-02-21T03:43:32;99604.72;;;6.25;77.70
80747;BME280;75521;50.218;14.322;2024-02-21T03:45:57;99592.94;;;6.20;77.69
80747;BME280;75521;50.218;14.322;2024-02-21T03:48:23;99590.63;;;6.12;77.42
80747;BME280;75521;50.218;14.322;2024-02-21T03:50:48;99604.56;;;6.15;77.76
80747;BME280;75521;50.218;14.322;2024-02-21T03:53:13;99600.06;;;6.09;78.52
80747;BME280;75521;50.218;14.322;2024-02-21T03:55:39;99605.22;;;6.22;78.34
80747;BME280;75521;50.218;14.322;2024-02-21T03:58:04;99607.34;;;6.20;78.41
80747;BME280;75521;50.218;14.322;2024-02-21T04:00:29;99604.38;;;6.22;78.27
80747;BME280;75521;50.218;14.322;2024-02-21T04:02:55;99604.63;;;6.20;78.33
80747;BME280;75521;50.218;14.322;2024-02-21T04:05:21;99605.94;;;6.18;77.84
80747;BME280;75521;50.218;14.322;2024-02-21T04:07:47;99602.56;;;6.11;78.67
80747;BME280;75521;50.218;14.322;2024-02-21T04:10:12;99611.03;;;6.14;78.20
80747;BME280;75521;50.218;14.322;2024-02-21T04:12:38;99598.13;;;6.05;77.75
80747;BME280;75521;50.218;14.322;2024-02-21T04:15:04;99591.63;;;5.94;78.54
80747;BME280;75521;50.218;14.322;2024-02-21T04:17:29;99583.88;;;5.86;78.32
80747;BME280;75521;50.218;14.322;2024-02-21T04:20:04;99586.19;;;5.94;78.33
80747;BME280;75521;50.218;14.322;2024-02-21T04:22:34;99585.66;;;5.80;78.38
80747;BME280;75521;50.218;14.322;2024-02-21T04:25:00;99594.75;;;5.86;78.56
80747;BME280;75521;50.218;14.322;2024-02-21T04:27:25;99576.22;;;5.71;78.90
80747;BME280;75521;50.218;14.322;2024-02-21T04:29:52;99580.94;;;5.76;79.03
80747;BME280;75521;50.218;14.322;2024-02-21T04:32:17;99587.78;;;5.78;79.32
80747;BME280;75521;50.218;14.322;2024-02-21T04:34:43;99575.19;;;5.72;79.51
80747;BME280;75521;50.218;14.322;2024-02-21T04:37:08;99560.75;;;5.72;79.94
80747;BME280;75521;50.218;14.322;2024-02-21T04:39:33;99573.28;;;5.73;79.80
80747;BME280;75521;50.218;14.322;2024-02-21T04:41:59;99562.41;;;5.73;79.73
80747;BME280;75521;50.218;14.322;2024-02-21T04:44:24;99565.72;;;5.75;80.42
80747;BME280;75521;50.218;14.322;2024-02-21T04:46:49;99555.81;;;5.69;80.94
80747;BME280;75521;50.218;14.322;2024-02-21T04:49:15;99568.75;;;5.78;79.94
80747;BME280;75521;50.218;14.322;2024-02-21T04:51:40;99561.59;;;5.72;80.21
80747;BME280;75521;50.218;14.322;2024-02-21T04:54:06;99584.34;;;5.83;79.68
80747;BME280;75521;50.218;14.322;2024-02-21T04:56:31;99555.34;;;5.72;79.23
80747;BME280;75521;50.218;14.322;2024-02-21T04:58:57;99563.47;;;5.72;79.32
80747;BME280;75521;50.218;14.322;2024-02-21T05:01:22;99561.03;;;5.70;79.28
80747;BME280;75521;50.218;14.322;2024-02-21T05:03:47;99561.81;;;5.71;79.49
80747;BME280;75521;50.218;14.322;2024-02-21T05:06:13;99554.28;;;5.73;79.25
80747;BME280;75521;50.218;14.322;2024-02-21T05:08:38;99554.00;;;5.74;79.54
80747;BME280;75521;50.218;14.322;2024-02-21T05:11:03;99564.16;;;5.79;79.56
80747;BME280;75521;50.218;14.322;2024-02-21T05:13:29;99558.25;;;5.82;78.71
80747;BME280;75521;50.218;14.322;2024-02-21T05:15:54;99551.50;;;5.85;78.80
80747;BME280;75521;50.218;14.322;2024-02-21T05:18:19;99549.03;;;5.83;78.66
80747;BME280;75521;50.218;14.322;2024-02-21T05:20:46;99552.72;;;5.89;78.76
80747;BME280;75521;50.218;14.322;2024-02-21T05:23:11;99556.91;;;5.96;78.51
80747;BME280;75521;50.218;14.322;2024-02-21T05:25:37;99566.47;;;5.99;78.10
80747;BME280;75521;50.218;14.322;2024-02-21T05:28:03;99553.72;;;5.99;78.46
80747;BME280;75521;50.218;14.322;2024-02-21T05:30:29;99553.38;;;5.96;78.09
80747;BME280;75521;50.218;14.322;2024-02-21T05:32:54;99552.88;;;5.99;78.13
80747;BME280;75521;50.218;14.322;2024-02-21T05:35:25;99560.88;;;6.05;78.36
80747;BME280;75521;50.218;14.322;2024-02-21T05:37:50;99554.38;;;6.06;78.51
80747;BME280;75521;50.218;14.322;2024-02-21T05:40:18;99557.59;;;6.03;78.50
80747;BME280;75521;50.218;14.322;2024-02-21T05:42:43;99548.84;;;6.01;78.41
80747;BME280;75521;50.218;14.322;2024-02-21T05:45:09;99543.91;;;5.98;78.12
80747;BME280;75521;50.218;14.322;2024-02-21T05:47:35;99549.53;;;6.08;78.81
80747;BME280;75521;50.218;14.322;2024-02-21T05:50:01;99544.56;;;6.05;79.05
80747;BME280;75521;50.218;14.322;2024-02-21T05:52:26;99541.28;;;6.03;79.29
80747;BME280;75521;50.218;14.322;2024-02-21T05:54:52;99543.41;;;6.01;79.79
80747;BME280;75521;50.218;14.322;2024-02-21T05:57:17;99529.25;;;5.99;79.10
80747;BME280;75521;50.218;14.322;2024-02-21T05:59:43;99537.00;;;6.07;78.98
80747;BME280;75521;50.218;14.322;2024-02-21T06:02:09;99532.91;;;6.05;79.95
80747;BME280;75521;50.218;14.322;2024-02-21T06:04:34;99534.53;;;6.06;79.08
80747;BME280;75521;50.218;14.322;2024-02-21T06:07:00;99545.16;;;6.07;79.10
80747;BME280;75521;50.218;14.322;2024-02-21T06:09:26;99541.44;;;6.13;78.43
80747;BME280;75521;50.218;14.322;2024-02-21T06:11:51;99528.47;;;6.15;77.32
80747;BME280;75521;50.218;14.322;2024-02-21T06:14:17;99525.81;;;6.20;77.48
80747;BME280;75521;50.218;14.322;2024-02-21T06:16:43;99517.19;;;6.23;77.88
80747;BME280;75521;50.218;14.322;2024-02-21T06:19:09;99513.78;;;6.33;77.19
80747;BME280;75521;50.218;14.322;2024-02-21T06:21:34;99524.16;;;6.36;76.56
80747;BME280;75521;50.218;14.322;2024-02-21T06:23:59;99542.47;;;6.41;77.16
80747;BME280;75521;50.218;14.322;2024-02-21T06:26:25;99522.78;;;6.34;76.70
80747;BME280;75521;50.218;14.322;2024-02-21T06:28:50;99523.34;;;6.36;76.82
80747;BME280;75521;50.218;14.322;2024-02-21T06:31:15;99518.59;;;6.43;76.04
80747;BME280;75521;50.218;14.322;2024-02-21T06:33:41;99525.50;;;6.50;76.21
80747;BME280;75521;50.218;14.322;2024-02-21T06:36:06;99525.81;;;6.54;76.79
80747;BME280;75521;50.218;14.322;2024-02-21T06:38:32;99521.44;;;6.53;76.05
80747;BME280;75521;50.218;14.322;2024-02-21T06:40:59;99534.03;;;6.59;76.65
80747;BME280;75521;50.218;14.322;2024-02-21T06:43:25;99530.25;;;6.60;77.45
80747;BME280;75521;50.218;14.322;2024-02-21T06:45:50;99519.88;;;6.57;77.44
80747;BME280;75521;50.218;14.322;2024-02-21T06:48:17;99525.66;;;6.60;78.36
80747;BME280;75521;50.218;14.322;2024-02-21T06:50:43;99515.28;;;6.57;78.12
80747;BME280;75521;50.218;14.322;2024-02-21T06:53:09;99506.47;;;6.50;78.30
80747;BME280;75521;50.218;14.322;2024-02-21T06:55:35;99509.66;;;6.64;78.10
80747;BME280;75521;50.218;14.322;2024-02-21T06:58:00;99511.53;;;6.63;78.15
80747;BME280;75521;50.218;14.322;2024-02-21T07:00:30;99504.44;;;6.62;77.72
80747;BME280;75521;50.218;14.322;2024-02-21T07:02:55;99493.97;;;6.71;76.95
80747;BME280;75521;50.218;14.322;2024-02-21T07:05:21;99501.56;;;6.69;77.54
80747;BME280;75521;50.218;14.322;2024-02-21T07:07:47;99504.94;;;6.76;77.17
80747;BME280;75521;50.218;14.322;2024-02-21T07:10:12;99503.88;;;6.77;77.60
80747;BME280;75521;50.218;14.322;2024-02-21T07:12:38;99514.25;;;6.80;77.33
80747;BME280;75521;50.218;14.322;2024-02-21T07:15:07;99522.97;;;6.82;77.47
80747;BME280;75521;50.218;14.322;2024-02-21T07:17:32;99512.72;;;6.89;77.00
80747;BME280;75521;50.218;14.322;2024-02-21T07:19:58;99515.59;;;6.99;75.18
80747;BME280;75521;50.218;14.322;2024-02-21T07:22:24;99498.78;;;7.02;74.85
80747;BME280;75521;50.218;14.322;2024-02-21T07:24:49;99506.00;;;7.13;74.83
80747;BME280;75521;50.218;14.322;2024-02-21T07:27:15;99505.16;;;7.13;75.32
80747;BME280;75521;50.218;14.322;2024-02-21T07:29:41;99504.59;;;7.11;74.30
80747;BME280;75521;50.218;14.322;2024-02-21T07:32:06;99509.66;;;7.24;72.84
80747;BME280;75521;50.218;14.322;2024-02-21T07:34:31;99517.56;;;7.26;73.06
80747;BME280;75521;50.218;14.322;2024-02-21T07:36:57;99521.38;;;7.24;72.09
80747;BME280;75521;50.218;14.322;2024-02-21T07:39:22;99518.72;;;7.30;72.50
80747;BME280;75521;50.218;14.322;2024-02-21T07:41:48;99510.78;;;7.28;73.44
80747;BME280;75521;50.218;14.322;2024-02-21T07:44:15;99511.88;;;7.27;73.06
80747;BME280;75521;50.218;14.322;2024-02-21T07:46:40;99505.53;;;7.21;73.46
80747;BME280;75521;50.218;14.322;2024-02-21T07:49:05;99507.75;;;7.24;73.82
80747;BME280;75521;50.218;14.322;2024-02-21T07:51:31;99508.06;;;7.28;73.89
80747;BME280;75521;50.218;14.322;2024-02-21T07:53:56;99501.56;;;7.29;75.14
80747;BME280;75521;50.218;14.322;2024-02-21T07:56:22;99514.41;;;7.34;74.63
80747;BME280;75521;50.218;14.322;2024-02-21T07:58:47;99504.09;;;7.36;74.61
80747;BME280;75521;50.218;14.322;2024-02-21T08:01:18;99501.63;;;7.34;74.74
80747;BME280;75521;50.218;14.322;2024-02-21T08:03:45;99500.28;;;7.37;75.52
80747;BME280;75521;50.218;14.322;2024-02-21T08:06:12;99499.22;;;7.38;75.50
80747;BME280;75521;50.218;14.322;2024-02-21T08:08:38;99498.81;;;7.51;73.89
80747;BME280;75521;50.218;14.322;2024-02-21T08:11:03;99494.56;;;7.60;74.27
80747;BME280;75521;50.218;14.322;2024-02-21T08:13:29;99492.69;;;7.65;74.44
80747;BME280;75521;50.218;14.322;2024-02-21T08:15:54;99485.88;;;7.63;74.10
80747;BME280;75521;50.218;14.322;2024-02-21T08:18:19;99490.09;;;7.76;74.53
80747;BME280;75521;50.218;14.322;2024-02-21T08:20:45;99490.13;;;7.81;74.29
80747;BME280;75521;50.218;14.322;2024-02-21T08:23:10;99489.97;;;7.92;73.78
80747;BME280;75521;50.218;14.322;2024-02-21T08:25:36;99462.94;;;7.86;74.09
80747;BME280;75521;50.218;14.322;2024-02-21T08:28:01;99477.44;;;7.91;74.71
80747;BME280;75521;50.218;14.322;2024-02-21T08:30:27;99475.81;;;7.95;74.48
80747;BME280;75521;50.218;14.322;2024-02-21T08:32:53;99470.44;;;8.00;75.28
80747;BME280;75521;50.218;14.322;2024-02-21T08:35:19;99473.50;;;8.09;75.15
80747;BME280;75521;50.218;14.322;2024-02-21T08:37:47;99460.22;;;8.17;75.23
80747;BME280;75521;50.218;14.322;2024-02-21T08:40:13;99451.25;;;8.22;75.62
80747;BME280;75521;50.218;14.322;2024-02-21T08:42:39;99458.16;;;8.30;75.26
80747;BME280;75521;50.218;14.322;2024-02-21T08:45:04;99453.53;;;8.30;74.94
80747;BME280;75521;50.218;14.322;2024-02-21T08:47:30;99454.91;;;8.33;74.13
80747;BME280;75521;50.218;14.322;2024-02-21T08:49:55;99461.50;;;8.37;74.51
80747;BME280;75521;50.218;14.322;2024-02-21T08:52:20;99475.19;;;8.47;74.47
80747;BME280;75521;50.218;14.322;2024-02-21T08:54:46;99479.03;;;8.51;72.16
80747;BME280;75521;50.218;14.322;2024-02-21T08:57:11;99487.81;;;8.58;73.57
80747;BME280;75521;50.218;14.322;2024-02-21T08:59:39;99482.13;;;8.59;73.67
80747;BME280;75521;50.218;14.322;2024-02-21T09:02:04;99477.19;;;8.61;73.47
80747;BME280;75521;50.218;14.322;2024-02-21T09:04:30;99462.41;;;8.52;72.77
80747;BME280;75521;50.218;14.322;2024-02-21T09:06:56;99470.31;;;8.54;72.44
80747;BME280;75521;50.218;14.322;2024-02-21T09:09:21;99464.78;;;8.39;72.50
80747;BME280;75521;50.218;14.322;2024-02-21T09:11:46;99463.22;;;8.48;73.54
80747;BME280;75521;50.218;14.322;2024-02-21T09:14:12;99458.59;;;8.53;72.54
80747;BME280;75521;50.218;14.322;2024-02-21T09:16:37;99452.44;;;8.73;72.94
80747;BME280;75521;50.218;14.322;2024-02-21T09:19:03;99459.06;;;8.87;72.59
80747;BME280;75521;50.218;14.322;2024-02-21T09:21:28;99446.56;;;8.96;72.30
80747;BME280;75521;50.218;14.322;2024-02-21T09:23:53;99457.28;;;9.18;71.82
80747;BME280;75521;50.218;14.322;2024-02-21T09:26:19;99446.13;;;9.20;69.63
80747;BME280;75521;50.218;14.322;2024-02-21T09:28:45;99447.50;;;9.27;69.04
80747;BME280;75521;50.218;14.322;2024-02-21T09:31:10;99448.03;;;9.29;70.50
80747;BME280;75521;50.218;14.322;2024-02-21T09:33:35;99448.91;;;9.45;70.64
80747;BME280;75521;50.218;14.322;2024-02-21T09:36:02;99442.13;;;9.68;69.14
80747;BME280;75521;50.218;14.322;2024-02-21T09:38:27;99441.34;;;9.92;67.97
80747;BME280;75521;50.218;14.322;2024-02-21T09:41:02;99449.03;;;10.36;67.63
80747;BME280;75521;50.218;14.322;2024-02-21T09:43:34;99439.06;;;11.49;64.78
80747;BME280;75521;50.218;14.322;2024-02-21T09:46:00;99429.25;;;13.03;59.00
80747;BME280;75521;50.218;14.322;2024-02-21T09:48:42;99424.19;;;14.08;57.48
80747;BME280;75521;50.218;14.322;2024-02-21T09:51:11;99397.91;;;13.83;56.40
80747;BME280;75521;50.218;14.322;2024-02-21T09:53:38;99398.50;;;13.43;56.68
80747;BME280;75521;50.218;14.322;2024-02-21T09:56:07;99406.06;;;13.14;57.15
80747;BME280;75521;50.218;14.322;2024-02-21T09:58:33;99396.81;;;12.57;59.31
80747;BME280;75521;50.218;14.322;2024-02-21T10:00:59;99409.97;;;12.31;58.90
80747;BME280;75521;50.218;14.322;2024-02-21T10:03:25;99416.97;;;12.14;60.47
80747;BME280;75521;50.218;14.322;2024-02-21T10:05:50;99409.75;;;11.94;60.90
80747;BME280;75521;50.218;14.322;2024-02-21T10:08:16;99421.81;;;11.93;59.92
80747;BME280;75521;50.218;14.322;2024-02-21T10:10:43;99412.16;;;12.00;59.84
80747;BME280;75521;50.218;14.322;2024-02-21T10:13:10;99411.09;;;12.25;59.51
80747;BME280;75521;50.218;14.322;2024-02-21T10:15:36;99407.88;;;12.18;59.29
80747;BME280;75521;50.218;14.322;2024-02-21T10:18:02;99407.44;;;12.64;57.95
80747;BME280;75521;50.218;14.322;2024-02-21T10:20:28;99412.75;;;12.55;58.79
80747;BME280;75521;50.218;14.322;2024-02-21T10:23:04;99406.50;;;12.49;58.34
80747;BME280;75521;50.218;14.322;2024-02-21T10:25:34;99406.47;;;13.82;56.58
80747;BME280;75521;50.218;14.322;2024-02-21T10:27:59;99395.31;;;15.25;51.01
80747;BME280;75521;50.218;14.322;2024-02-21T10:30:24;99387.19;;;16.67;46.46
80747;BME280;75521;50.218;14.322;2024-02-21T10:32:53;99403.47;;;17.64;42.68
80747;BME280;75521;50.218;14.322;2024-02-21T10:35:26;99376.78;;;18.75;40.44
80747;BME280;75521;50.218;14.322;2024-02-21T10:37:53;99399.00;;;20.04;38.69
80747;BME280;75521;50.218;14.322;2024-02-21T10:40:24;99391.75;;;21.50;35.09
80747;BME280;75521;50.218;14.322;2024-02-21T10:42:55;99377.34;;;22.13;32.65
80747;BME280;75521;50.218;14.322;2024-02-21T10:45:22;99388.59;;;20.91;34.86
80747;BME280;75521;50.218;14.322;2024-02-21T10:47:51;99383.19;;;18.96;38.47
80747;BME280;75521;50.218;14.322;2024-02-21T10:50:22;99388.41;;;17.48;40.18
80747;BME280;75521;50.218;14.322;2024-02-21T10:53:09;99390.19;;;16.04;43.49
80747;BME280;75521;50.218;14.322;2024-02-21T10:55:42;99396.41;;;15.51;47.29
80747;BME280;75521;50.218;14.322;2024-02-21T10:58:12;99390.53;;;15.03;47.53
80747;BME280;75521;50.218;14.322;2024-02-21T11:00:39;99381.44;;;14.62;48.53
80747;BME280;75521;50.218;14.322;2024-02-21T11:03:05;99387.16;;;14.01;52.32
80747;BME280;75521;50.218;14.322;2024-02-21T11:05:32;99384.34;;;14.06;51.63
80747;BME280;75521;50.218;14.322;2024-02-21T11:07:58;99388.81;;;14.94;51.29
80747;BME280;75521;50.218;14.322;2024-02-21T11:10:24;99383.13;;;15.26;50.06
80747;BME280;75521;50.218;14.322;2024-02-21T11:13:05;99376.69;;;15.44;49.22
80747;BME280;75521;50.218;14.322;2024-02-21T11:15:32;99362.06;;;14.80;47.28
80747;BME280;75521;50.218;14.322;2024-02-21T11:17:57;99349.00;;;14.45;48.56
80747;BME280;75521;50.218;14.322;2024-02-21T11:20:35;99364.19;;;14.56;49.39
80747;BME280;75521;50.218;14.322;2024-02-21T11:23:00;99341.00;;;14.30;51.90
80747;BME280;75521;50.218;14.322;2024-02-21T11:25:26;99347.06;;;14.13;51.72
80747;BME280;75521;50.218;14.322;2024-02-21T11:27:59;99335.41;;;14.03;50.38
80747;BME280;75521;50.218;14.322;2024-02-21T11:30:31;99333.09;;;14.23;51.13
80747;BME280;75521;50.218;14.322;2024-02-21T11:33:03;99325.03;;;14.13;52.16
80747;BME280;75521;50.218;14.322;2024-02-21T11:35:35;99315.81;;;13.90;52.62
80747;BME280;75521;50.218;14.322;2024-02-21T11:38:11;99315.75;;;13.96;52.33
80747;BME280;75521;50.218;14.322;2024-02-21T11:40:40;99307.06;;;14.75;48.87
80747;BME280;75521;50.218;14.322;2024-02-21T11:43:06;99292.88;;;15.67;48.11
80747;BME280;75521;50.218;14.322;2024-02-21T11:45:32;99296.19;;;15.78;47.52
80747;BME280;75521;50.218;14.322;2024-02-21T11:48:00;99293.44;;;15.42;47.77
80747;BME280;75521;50.218;14.322;2024-02-21T11:50:28;99286.34;;;15.63;46.38
80747;BME280;75521;50.218;14.322;2024-02-21T11:52:54;99285.56;;;15.71;45.89
80747;BME280;75521;50.218;14.322;2024-02-21T11:55:20;99278.19;;;16.42;45.64
80747;BME280;75521;50.218;14.322;2024-02-21T11:57:47;99282.09;;;16.98;44.20
80747;BME280;75521;50.218;14.322;2024-02-21T12:00:17;99283.84;;;16.06;44.68
80747;BME280;75521;50.218;14.322;2024-02-21T12:02:45;99291.34;;;15.61;46.51
80747;BME280;75521;50.218;14.322;2024-02-21T12:05:11;99272.19;;;15.07;47.59
80747;BME280;75521;50.218;14.322;2024-02-21T12:07:37;99275.03;;;14.38;48.37
80747;BME280;75521;50.218;14.322;2024-02-21T12:10:09;99271.63;;;14.28;50.03
80747;BME280;75521;50.218;14.322;2024-02-21T12:12:36;99260.59;;;14.01;52.17
80747;BME280;75521;50.218;14.322;2024-02-21T12:15:03;99270.28;;;14.12;52.56
80747;BME280;75521;50.218;14.322;2024-02-21T12:17:30;99262.72;;;14.99;50.15
80747;BME280;75521;50.218;14.322;2024-02-21T12:19:56;99256.44;;;15.21;49.84
80747;BME280;75521;50.218;14.322;2024-02-21T12:22:21;99258.06;;;15.22;49.64
80747;BME280;75521;50.218;14.322;2024-02-21T12:24:47;99244.69;;;14.93;48.93
80747;BME280;75521;50.218;14.322;2024-02-21T12:27:13;99240.75;;;14.72;51.00
80747;BME280;75521;50.218;14.322;2024-02-21T12:29:39;99238.59;;;14.14;50.10
80747;BME280;75521;50.218;14.322;2024-02-21T12:32:04;99242.38;;;14.18;52.40
80747;BME280;75521;50.218;14.322;2024-02-21T12:34:30;99225.13;;;14.13;53.18
80747;BME280;75521;50.218;14.322;2024-02-21T12:36:58;99220.97;;;14.29;51.88
80747;BME280;75521;50.218;14.322;2024-02-21T12:39:24;99219.38;;;14.42;52.23
80747;BME280;75521;50.218;14.322;2024-02-21T12:41:49;99195.03;;;14.71;51.90
80747;BME280;75521;50.218;14.322;2024-02-21T12:44:15;99184.50;;;15.09;51.42
80747;BME280;75521;50.218;14.322;2024-02-21T12:46:42;99175.75;;;15.51;48.68
80747;BME280;75521;50.218;14.322;2024-02-21T12:49:07;99181.59;;;16.20;48.83
80747;BME280;75521;50.218;14.322;2024-02-21T12:51:33;99173.34;;;16.37;45.93
80747;BME280;75521;50.218;14.322;2024-02-21T12:53:59;99173.00;;;16.30;47.27